sensor_id;sensor_type;location;lat;lon;timestamp;temperature;humidity
52849;DHT22;38714;53.180;5.812;2023-12-22T00:02:25;6.40;99.90
52849;DHT22;38714;53.180;5.812;2023-12-22T00:04:51;6.40;99.90
52849;DHT22;38714;53.180;5.812;2023-12-22T00:07:17;6.40;99.90
52849;DHT22;38714;53.180;5.812;2023-12-22T00:09:42;6.30;99.90
52849;DHT22;38714;53.180;5.812;2023-12-22T00:12:08;6.30;99.90
52849;DHT22;38714;53.180;5.812;2023-12-22T00:14:33;6.30;99.90
52849;DHT22;38714;53.180;5.812;2023-12-22T00:16:59;6.30;99.90
52849;DHT22;38714;53.180;5.812;2023-12-22T00:19:24;6.30;99.90
52849;DHT22;38714;53.180;5.812;2023-12-22T00:21:50;6.30;99.90
52849;DHT22;38714;53.180;5.812;2023-12-22T00:24:15;6.40;99.90
52849;DHT22;38714;53.180;5.812;2023-12-22T00:26:41;6.50;99.90
52849;DHT22;38714;53.180;5.812;2023-12-22T00:29:07;6.50;99.90
52849;DHT22;38714;53.180;5.812;2023-12-22T00:31:32;6.60;99.90
52849;DHT22;38714;53.180;5.812;2023-12-22T00:33:58;6.70;99.90
52849;DHT22;38714;53.180;5.812;2023-12-22T00:36:23;6.80;99.90
52849;DHT22;38714;53.180;5.812;2023-12-22T00:38:50;6.80;99.90
52849;DHT22;38714;53.180;5.812;2023-12-22T00:41:16;6.70;99.90
52849;DHT22;38714;53.180;5.812;2023-12-22T00:43:41;6.60;99.90
52849;DHT22;38714;53.180;5.812;2023-12-22T00:46:07;6.50;99.90
52849;DHT22;38714;53.180;5.812;2023-12-22T00:48:32;6.40;99.90
52849;DHT22;38714;53.180;5.812;2023-12-22T00:50:58;6.40;99.90
52849;DHT22;38714;53.180;5.812;2023-12-22T00:53:23;6.30;99.90
52849;DHT22;38714;53.180;5.812;2023-12-22T00:55:49;6.30;99.90
52849;DHT22;38714;53.180;5.812;2023-12-22T00:58:15;6.30;99.90
52849;DHT22;38714;53.180;5.812;2023-12-22T01:00:40;6.40;99.90
52849;DHT22;38714;53.180;5.812;2023-12-22T01:03:06;6.40;99.90
52849;DHT22;38714;53.180;5.812;2023-12-22T01:05:31;6.30;99.90
52849;DHT22;38714;53.180;5.812;2023-12-22T01:07:57;6.30;99.90
52849;DHT22;38714;53.180;5.812;2023-12-22T01:10:22;6.20;99.90
52849;DHT22;38714;53.180;5.812;2023-12-22T01:12:48;6.20;99.90
52849;DHT22;38714;53.180;5.812;2023-12-22T01:15:13;6.20;99.90
52849;DHT22;38714;53.180;5.812;2023-12-22T01:17:39;6.20;99.90
52849;DHT22;38714;53.180;5.812;2023-12-22T01:20:05;6.20;99.90
52849;DHT22;38714;53.180;5.812;2023-12-22T01:22:31;6.20;99.90
52849;DHT22;38714;53.180;5.812;2023-12-22T01:24:57;6.20;99.90
52849;DHT22;38714;53.180;5.812;2023-12-22T01:27:23;6.30;99.90
52849;DHT22;38714;53.180;5.812;2023-12-22T01:29:48;6.30;99.90
52849;DHT22;38714;53.180;5.812;2023-12-22T01:32:14;6.30;99.90
52849;DHT22;38714;53.180;5.812;2023-12-22T01:34:39;6.30;99.90
52849;DHT22;38714;53.180;5.812;2023-12-22T01:37:05;6.40;99.90
52849;DHT22;38714;53.180;5.812;2023-12-22T01:39:31;6.50;99.90
52849;DHT22;38714;53.180;5.812;2023-12-22T01:41:57;6.50;99.90
52849;DHT22;38714;53.180;5.812;2023-12-22T01:44:22;6.50;99.90
52849;DHT22;38714;53.180;5.812;2023-12-22T01:46:49;6.50;99.90
52849;DHT22;38714;53.180;5.812;2023-12-22T01:49:15;6.60;99.90
52849;DHT22;38714;53.180;5.812;2023-12-22T01:51:41;6.60;99.90
52849;DHT22;38714;53.180;5.812;2023-12-22T01:54:06;6.70;99.90
52849;DHT22;38714;53.180;5.812;2023-12-22T01:56:32;6.70;99.90
52849;DHT22;38714;53.180;5.812;2023-12-22T01:59:00;6.80;99.90
52849;DHT22;38714;53.180;5.812;2023-12-22T02:01:28;6.70;99.90
52849;DHT22;38714;53.180;5.812;2023-12-22T02:03:54;6.70;99.90
52849;DHT22;38714;53.180;5.812;2023-12-22T02:06:20;6.60;99.90
52849;DHT22;38714;53.180;5.812;2023-12-22T02:08:49;6.60;99.90
52849;DHT22;38714;53.180;5.812;2023-12-22T02:11:16;6.50;99.90
52849;DHT22;38714;53.180;5.812;2023-12-22T02:13:42;6.40;99.90
52849;DHT22;38714;53.180;5.812;2023-12-22T02:19:04;6.40;99.90
52849;DHT22;38714;53.180;5.812;2023-12-22T02:21:35;6.50;99.90
52849;DHT22;38714;53.180;5.812;2023-12-22T02:24:00;6.50;99.90
52849;DHT22;38714;53.180;5.812;2023-12-22T02:26:31;6.60;99.90
52849;DHT22;38714;53.180;5.812;2023-12-22T02:29:00;6.60;99.90
52849;DHT22;38714;53.180;5.812;2023-12-22T02:31:44;6.60;99.90
52849;DHT22;38714;53.180;5.812;2023-12-22T02:34:19;6.50;99.90
52849;DHT22;38714;53.180;5.812;2023-12-22T02:36:45;6.50;99.90
52849;DHT22;38714;53.180;5.812;2023-12-22T02:39:14;6.50;99.90
52849;DHT22;38714;53.180;5.812;2023-12-22T02:41:40;6.40;99.90
52849;DHT22;38714;53.180;5.812;2023-12-22T02:44:06;6.40;99.90
52849;DHT22;38714;53.180;5.812;2023-12-22T02:46:32;6.30;99.90
52849;DHT22;38714;53.180;5.812;2023-12-22T02:48:58;6.20;99.90
52849;DHT22;38714;53.180;5.812;2023-12-22T02:51:23;6.20;99.90
52849;DHT22;38714;53.180;5.812;2023-12-22T02:53:49;6.20;99.90
52849;DHT22;38714;53.180;5.812;2023-12-22T02:56:14;6.10;99.90
52849;DHT22;38714;53.180;5.812;2023-12-22T02:58:40;6.10;99.90
52849;DHT22;38714;53.180;5.812;2023-12-22T03:01:06;6.10;99.90
52849;DHT22;38714;53.180;5.812;2023-12-22T03:03:31;6.10;99.90
52849;DHT22;38714;53.180;5.812;2023-12-22T03:05:57;6.20;99.90
52849;DHT22;38714;53.180;5.812;2023-12-22T03:08:22;6.20;99.90
52849;DHT22;38714;53.180;5.812;2023-12-22T03:10:49;6.20;99.90
52849;DHT22;38714;53.180;5.812;2023-12-22T03:13:15;6.20;99.90
52849;DHT22;38714;53.180;5.812;2023-12-22T03:15:40;6.20;99.90
52849;DHT22;38714;53.180;5.812;2023-12-22T03:18:06;6.30;99.90
52849;DHT22;38714;53.180;5.812;2023-12-22T03:20:31;6.30;99.90
52849;DHT22;38714;53.180;5.812;2023-12-22T03:22:58;6.40;99.90
52849;DHT22;38714;53.180;5.812;2023-12-22T03:25:23;6.40;99.90
52849;DHT22;38714;53.180;5.812;2023-12-22T03:27:50;6.40;99.90
52849;DHT22;38714;53.180;5.812;2023-12-22T03:30:15;6.40;99.90
52849;DHT22;38714;53.180;5.812;2023-12-22T03:32:41;6.50;99.90
52849;DHT22;38714;53.180;5.812;2023-12-22T03:35:06;6.50;99.90
52849;DHT22;38714;53.180;5.812;2023-12-22T03:37:32;6.50;99.90
52849;DHT22;38714;53.180;5.812;2023-12-22T03:39:58;6.60;99.90
52849;DHT22;38714;53.180;5.812;2023-12-22T03:42:23;6.60;99.90
52849;DHT22;38714;53.180;5.812;2023-12-22T03:44:49;6.60;99.90
52849;DHT22;38714;53.180;5.812;2023-12-22T03:47:14;6.60;99.90
52849;DHT22;38714;53.180;5.812;2023-12-22T03:49:40;6.60;99.90
52849;DHT22;38714;53.180;5.812;2023-12-22T03:52:06;6.70;99.90
52849;DHT22;38714;53.180;5.812;2023-12-22T03:54:31;6.70;99.90
52849;DHT22;38714;53.180;5.812;2023-12-22T03:56:57;6.70;99.90
52849;DHT22;38714;53.180;5.812;2023-12-22T03:59:22;6.70;99.90
52849;DHT22;38714;53.180;5.812;2023-12-22T04:01:52;6.70;99.90
52849;DHT22;38714;53.180;5.812;2023-12-22T04:04:18;6.70;99.90
52849;DHT22;38714;53.180;5.812;2023-12-22T04:06:44;6.80;99.90
52849;DHT22;38714;53.180;5.812;2023-12-22T04:09:09;6.70;99.90
52849;DHT22;38714;53.180;5.812;2023-12-22T04:11:35;6.70;99.90
52849;DHT22;38714;53.180;5.812;2023-12-22T04:14:02;6.70;99.90
52849;DHT22;38714;53.180;5.812;2023-12-22T04:16:27;6.80;99.90
52849;DHT22;38714;53.180;5.812;2023-12-22T04:18:53;6.80;99.90
52849;DHT22;38714;53.180;5.812;2023-12-22T04:21:19;6.80;99.90
52849;DHT22;38714;53.180;5.812;2023-12-22T04:23:44;6.80;99.90
52849;DHT22;38714;53.180;5.812;2023-12-22T04:26:10;6.80;99.90
52849;DHT22;38714;53.180;5.812;2023-12-22T04:28:35;6.80;99.90
52849;DHT22;38714;53.180;5.812;2023-12-22T04:31:01;6.80;99.90
52849;DHT22;38714;53.180;5.812;2023-12-22T04:33:27;6.80;99.90
52849;DHT22;38714;53.180;5.812;2023-12-22T04:35:52;6.90;99.90
52849;DHT22;38714;53.180;5.812;2023-12-22T04:38:18;6.80;99.90
52849;DHT22;38714;53.180;5.812;2023-12-22T04:40:43;6.80;99.90
52849;DHT22;38714;53.180;5.812;2023-12-22T04:43:09;6.80;99.90
52849;DHT22;38714;53.180;5.812;2023-12-22T04:45:35;6.80;99.90
52849;DHT22;38714;53.180;5.812;2023-12-22T04:48:00;6.80;99.90
52849;DHT22;38714;53.180;5.812;2023-12-22T04:50:26;6.80;99.90
52849;DHT22;38714;53.180;5.812;2023-12-22T04:52:51;6.80;99.90
52849;DHT22;38714;53.180;5.812;2023-12-22T04:55:17;6.80;99.90
52849;DHT22;38714;53.180;5.812;2023-12-22T04:57:43;6.90;99.90
52849;DHT22;38714;53.180;5.812;2023-12-22T05:00:09;6.90;99.90
52849;DHT22;38714;53.180;5.812;2023-12-22T05:02:34;6.90;99.90
52849;DHT22;38714;53.180;5.812;2023-12-22T05:05:00;6.90;99.90
52849;DHT22;38714;53.180;5.812;2023-12-22T05:07:27;6.90;99.90
52849;DHT22;38714;53.180;5.812;2023-12-22T05:09:53;6.90;99.90
52849;DHT22;38714;53.180;5.812;2023-12-22T05:12:19;6.90;99.90
52849;DHT22;38714;53.180;5.812;2023-12-22T05:14:45;6.90;99.90
52849;DHT22;38714;53.180;5.812;2023-12-22T05:17:11;6.90;99.90
52849;DHT22;38714;53.180;5.812;2023-12-22T05:19:37;6.90;99.90
52849;DHT22;38714;53.180;5.812;2023-12-22T05:22:03;6.90;99.90
52849;DHT22;38714;53.180;5.812;2023-12-22T05:24:29;6.90;99.90
52849;DHT22;38714;53.180;5.812;2023-12-22T05:26:54;6.80;99.90
52849;DHT22;38714;53.180;5.812;2023-12-22T05:29:20;6.80;99.90
52849;DHT22;38714;53.180;5.812;2023-12-22T05:31:45;6.80;99.90
52849;DHT22;38714;53.180;5.812;2023-12-22T05:34:11;6.90;99.90
52849;DHT22;38714;53.180;5.812;2023-12-22T05:36:37;6.80;99.90
52849;DHT22;38714;53.180;5.812;2023-12-22T05:39:02;6.90;99.90
52849;DHT22;38714;53.180;5.812;2023-12-22T05:41:28;6.90;99.90
52849;DHT22;38714;53.180;5.812;2023-12-22T05:43:54;6.90;99.90
52849;DHT22;38714;53.180;5.812;2023-12-22T05:46:19;6.90;99.90
52849;DHT22;38714;53.180;5.812;2023-12-22T05:48:45;6.90;99.90
52849;DHT22;38714;53.180;5.812;2023-12-22T05:51:10;7.00;99.90
52849;DHT22;38714;53.180;5.812;2023-12-22T05:53:39;7.00;99.90
52849;DHT22;38714;53.180;5.812;2023-12-22T05:56:18;7.00;99.90
52849;DHT22;38714;53.180;5.812;2023-12-22T05:58:48;7.00;99.90
52849;DHT22;38714;53.180;5.812;2023-12-22T06:01:18;6.90;99.90
52849;DHT22;38714;53.180;5.812;2023-12-22T06:03:45;6.90;99.90
52849;DHT22;38714;53.180;5.812;2023-12-22T06:06:11;6.90;99.90
52849;DHT22;38714;53.180;5.812;2023-12-22T06:08:37;6.90;99.90
52849;DHT22;38714;53.180;5.812;2023-12-22T06:11:04;6.90;99.90
52849;DHT22;38714;53.180;5.812;2023-12-22T06:13:29;6.90;99.90
52849;DHT22;38714;53.180;5.812;2023-12-22T06:15:55;6.90;99.90
52849;DHT22;38714;53.180;5.812;2023-12-22T06:18:20;6.90;99.90
52849;DHT22;38714;53.180;5.812;2023-12-22T06:20:46;6.90;99.90
52849;DHT22;38714;53.180;5.812;2023-12-22T06:23:11;6.90;99.90
52849;DHT22;38714;53.180;5.812;2023-12-22T06:25:37;6.90;99.90
52849;DHT22;38714;53.180;5.812;2023-12-22T06:28:03;6.90;99.90
52849;DHT22;38714;53.180;5.812;2023-12-22T06:30:29;6.90;99.90
52849;DHT22;38714;53.180;5.812;2023-12-22T06:32:55;6.90;99.90
52849;DHT22;38714;53.180;5.812;2023-12-22T06:35:21;6.90;99.90
52849;DHT22;38714;53.180;5.812;2023-12-22T06:37:49;6.90;99.90
52849;DHT22;38714;53.180;5.812;2023-12-22T06:40:15;6.90;99.90
52849;DHT22;38714;53.180;5.812;2023-12-22T06:42:41;6.90;99.90
52849;DHT22;38714;53.180;5.812;2023-12-22T06:45:06;6.90;99.90
52849;DHT22;38714;53.180;5.812;2023-12-22T06:47:32;6.90;99.90
52849;DHT22;38714;53.180;5.812;2023-12-22T06:49:58;6.90;99.90
52849;DHT22;38714;53.180;5.812;2023-12-22T06:52:24;6.90;99.90
52849;DHT22;38714;53.180;5.812;2023-12-22T06:54:49;6.90;99.90
52849;DHT22;38714;53.180;5.812;2023-12-22T06:57:15;7.00;99.90
52849;DHT22;38714;53.180;5.812;2023-12-22T06:59:42;7.00;99.90
52849;DHT22;38714;53.180;5.812;2023-12-22T07:02:08;7.00;99.90
52849;DHT22;38714;53.180;5.812;2023-12-22T07:04:59;7.00;99.90
52849;DHT22;38714;53.180;5.812;2023-12-22T07:07:34;7.00;99.90
52849;DHT22;38714;53.180;5.812;2023-12-22T07:09:59;7.00;99.90
52849;DHT22;38714;53.180;5.812;2023-12-22T07:12:25;7.00;99.90
52849;DHT22;38714;53.180;5.812;2023-12-22T07:14:50;7.00;99.90
52849;DHT22;38714;53.180;5.812;2023-12-22T07:17:16;7.00;99.90
52849;DHT22;38714;53.180;5.812;2023-12-22T07:19:41;7.00;99.90
52849;DHT22;38714;53.180;5.812;2023-12-22T07:22:07;7.00;99.90
52849;DHT22;38714;53.180;5.812;2023-12-22T07:24:33;7.00;99.90
52849;DHT22;38714;53.180;5.812;2023-12-22T07:26:58;7.00;99.90
52849;DHT22;38714;53.180;5.812;2023-12-22T07:29:24;7.00;99.90
52849;DHT22;38714;53.180;5.812;2023-12-22T07:31:50;7.00;99.90
52849;DHT22;38714;53.180;5.812;2023-12-22T07:34:16;7.00;99.90
52849;DHT22;38714;53.180;5.812;2023-12-22T07:36:42;7.00;99.90
52849;DHT22;38714;53.180;5.812;2023-12-22T07:39:07;7.00;99.90
52849;DHT22;38714;53.180;5.812;2023-12-22T07:41:34;7.00;99.90
52849;DHT22;38714;53.180;5.812;2023-12-22T07:44:00;7.10;99.90
52849;DHT22;38714;53.180;5.812;2023-12-22T07:46:26;7.10;99.90
52849;DHT22;38714;53.180;5.812;2023-12-22T07:48:53;7.10;99.90
52849;DHT22;38714;53.180;5.812;2023-12-22T07:51:19;7.10;99.90
52849;DHT22;38714;53.180;5.812;2023-12-22T07:53:45;7.10;99.90
52849;DHT22;38714;53.180;5.812;2023-12-22T07:56:11;7.00;99.90
52849;DHT22;38714;53.180;5.812;2023-12-22T07:58:37;7.00;99.90
52849;DHT22;38714;53.180;5.812;2023-12-22T08:01:04;7.00;99.90
52849;DHT22;38714;53.180;5.812;2023-12-22T08:03:31;7.00;99.90
52849;DHT22;38714;53.180;5.812;2023-12-22T08:05:57;7.00;99.90
52849;DHT22;38714;53.180;5.812;2023-12-22T08:08:22;6.90;99.90
52849;DHT22;38714;53.180;5.812;2023-12-22T08:10:48;6.90;99.90
52849;DHT22;38714;53.180;5.812;2023-12-22T08:13:13;6.90;99.90
52849;DHT22;38714;53.180;5.812;2023-12-22T08:15:39;6.80;99.90
52849;DHT22;38714;53.180;5.812;2023-12-22T08:18:05;6.80;99.90
52849;DHT22;38714;53.180;5.812;2023-12-22T08:20:30;6.70;99.90
52849;DHT22;38714;53.180;5.812;2023-12-22T08:22:56;6.70;99.90
52849;DHT22;38714;53.180;5.812;2023-12-22T08:25:21;6.70;99.90
52849;DHT22;38714;53.180;5.812;2023-12-22T08:27:47;6.70;99.90
52849;DHT22;38714;53.180;5.812;2023-12-22T08:30:13;6.70;99.90
52849;DHT22;38714;53.180;5.812;2023-12-22T08:32:39;6.70;99.90
52849;DHT22;38714;53.180;5.812;2023-12-22T08:35:06;6.70;99.90
52849;DHT22;38714;53.180;5.812;2023-12-22T08:37:32;6.70;99.90
52849;DHT22;38714;53.180;5.812;2023-12-22T08:39:57;6.70;99.90
52849;DHT22;38714;53.180;5.812;2023-12-22T08:42:23;6.70;99.90
52849;DHT22;38714;53.180;5.812;2023-12-22T08:44:50;6.70;99.90
52849;DHT22;38714;53.180;5.812;2023-12-22T08:47:15;6.70;99.90
52849;DHT22;38714;53.180;5.812;2023-12-22T08:49:41;6.70;99.90
52849;DHT22;38714;53.180;5.812;2023-12-22T08:52:07;6.70;99.90
52849;DHT22;38714;53.180;5.812;2023-12-22T08:54:33;6.70;99.90
52849;DHT22;38714;53.180;5.812;2023-12-22T08:57:00;6.70;99.90
52849;DHT22;38714;53.180;5.812;2023-12-22T08:59:26;6.70;99.90
52849;DHT22;38714;53.180;5.812;2023-12-22T09:01:51;6.70;99.90
52849;DHT22;38714;53.180;5.812;2023-12-22T09:04:17;6.70;99.90
52849;DHT22;38714;53.180;5.812;2023-12-22T09:06:43;6.70;99.90
52849;DHT22;38714;53.180;5.812;2023-12-22T09:09:08;6.70;99.90
52849;DHT22;38714;53.180;5.812;2023-12-22T09:11:35;6.70;99.90
52849;DHT22;38714;53.180;5.812;2023-12-22T09:14:00;6.70;99.90
52849;DHT22;38714;53.180;5.812;2023-12-22T09:16:26;6.70;99.90
52849;DHT22;38714;53.180;5.812;2023-12-22T09:18:52;6.80;99.90
52849;DHT22;38714;53.180;5.812;2023-12-22T09:21:18;6.80;99.90
52849;DHT22;38714;53.180;5.812;2023-12-22T09:23:44;6.80;99.90
52849;DHT22;38714;53.180;5.812;2023-12-22T09:26:12;6.80;99.90
52849;DHT22;38714;53.180;5.812;2023-12-22T09:28:37;6.90;99.90
52849;DHT22;38714;53.180;5.812;2023-12-22T09:31:03;6.90;99.90
52849;DHT22;38714;53.180;5.812;2023-12-22T09:33:31;6.90;99.90
52849;DHT22;38714;53.180;5.812;2023-12-22T09:35:56;7.00;99.90
52849;DHT22;38714;53.180;5.812;2023-12-22T09:38:22;7.00;99.90
52849;DHT22;38714;53.180;5.812;2023-12-22T09:40:49;7.00;99.90
52849;DHT22;38714;53.180;5.812;2023-12-22T09:43:15;7.00;99.90
52849;DHT22;38714;53.180;5.812;2023-12-22T09:45:42;7.00;99.90
52849;DHT22;38714;53.180;5.812;2023-12-22T09:48:08;7.00;99.90
52849;DHT22;38714;53.180;5.812;2023-12-22T09:50:36;7.00;99.90
52849;DHT22;38714;53.180;5.812;2023-12-22T09:53:02;7.00;99.90
52849;DHT22;38714;53.180;5.812;2023-12-22T09:55:30;7.10;99.90
52849;DHT22;38714;53.180;5.812;2023-12-22T09:57:56;7.10;99.90
52849;DHT22;38714;53.180;5.812;2023-12-22T10:00:22;7.10;99.90
52849;DHT22;38714;53.180;5.812;2023-12-22T10:02:49;7.10;99.90
52849;DHT22;38714;53.180;5.812;2023-12-22T10:05:14;7.20;99.90
52849;DHT22;38714;53.180;5.812;2023-12-22T10:07:45;7.20;99.90
52849;DHT22;38714;53.180;5.812;2023-12-22T10:10:11;7.20;99.90
52849;DHT22;38714;53.180;5.812;2023-12-22T10:12:38;7.20;99.90
52849;DHT22;38714;53.180;5.812;2023-12-22T10:15:05;7.20;99.90
52849;DHT22;38714;53.180;5.812;2023-12-22T10:17:32;7.20;99.90
52849;DHT22;38714;53.180;5.812;2023-12-22T10:19:58;7.30;99.90
52849;DHT22;38714;53.180;5.812;2023-12-22T10:22:24;7.20;99.90
52849;DHT22;38714;53.180;5.812;2023-12-22T10:24:50;7.30;99.90
52849;DHT22;38714;53.180;5.812;2023-12-22T10:27:19;7.30;99.90
52849;DHT22;38714;53.180;5.812;2023-12-22T10:29:55;7.30;99.90
52849;DHT22;38714;53.180;5.812;2023-12-22T10:32:21;7.30;99.90
52849;DHT22;38714;53.180;5.812;2023-12-22T10:34:47;7.30;99.90
52849;DHT22;38714;53.180;5.812;2023-12-22T10:37:13;7.30;99.90
52849;DHT22;38714;53.180;5.812;2023-12-22T10:39:39;7.30;99.90
52849;DHT22;38714;53.180;5.812;2023-12-22T10:42:05;7.30;99.90
52849;DHT22;38714;53.180;5.812;2023-12-22T10:44:31;7.30;99.90
52849;DHT22;38714;53.180;5.812;2023-12-22T10:46:57;7.30;99.90
52849;DHT22;38714;53.180;5.812;2023-12-22T10:49:24;7.30;99.90
52849;DHT22;38714;53.180;5.812;2023-12-22T10:51:51;7.40;99.90
52849;DHT22;38714;53.180;5.812;2023-12-22T10:54:18;7.40;99.90
52849;DHT22;38714;53.180;5.812;2023-12-22T10:56:43;7.40;99.90
52849;DHT22;38714;53.180;5.812;2023-12-22T10:59:09;7.40;99.90
52849;DHT22;38714;53.180;5.812;2023-12-22T11:01:38;7.50;99.90
52849;DHT22;38714;53.180;5.812;2023-12-22T11:04:14;7.50;99.90
52849;DHT22;38714;53.180;5.812;2023-12-22T11:06:43;7.50;99.90
52849;DHT22;38714;53.180;5.812;2023-12-22T11:09:10;7.50;99.90
52849;DHT22;38714;53.180;5.812;2023-12-22T11:11:37;7.60;99.90
52849;DHT22;38714;53.180;5.812;2023-12-22T11:14:05;7.60;99.90
52849;DHT22;38714;53.180;5.812;2023-12-22T11:16:32;7.60;99.90
52849;DHT22;38714;53.180;5.812;2023-12-22T11:18:59;7.60;99.90
52849;DHT22;38714;53.180;5.812;2023-12-22T11:21:25;7.60;99.90
52849;DHT22;38714;53.180;5.812;2023-12-22T11:23:52;7.60;99.90
52849;DHT22;38714;53.180;5.812;2023-12-22T11:26:19;7.70;99.90
52849;DHT22;38714;53.180;5.812;2023-12-22T11:28:46;7.70;99.90
52849;DHT22;38714;53.180;5.812;2023-12-22T11:31:13;7.70;99.90
52849;DHT22;38714;53.180;5.812;2023-12-22T11:33:44;7.70;99.90
52849;DHT22;38714;53.180;5.812;2023-12-22T11:36:12;7.70;99.90
52849;DHT22;38714;53.180;5.812;2023-12-22T11:38:42;7.70;99.90
52849;DHT22;38714;53.180;5.812;2023-12-22T11:41:12;7.70;99.90
52849;DHT22;38714;53.180;5.812;2023-12-22T11:43:40;7.70;99.90
52849;DHT22;38714;53.180;5.812;2023-12-22T11:46:06;7.70;99.90
52849;DHT22;38714;53.180;5.812;2023-12-22T11:48:32;7.70;99.90
52849;DHT22;38714;53.180;5.812;2023-12-22T11:50:58;7.70;99.90
52849;DHT22;38714;53.180;5.812;2023-12-22T11:53:25;7.70;99.90
52849;DHT22;38714;53.180;5.812;2023-12-22T11:55:58;7.70;99.90
52849;DHT22;38714;53.180;5.812;2023-12-22T11:58:48;7.70;99.90
52849;DHT22;38714;53.180;5.812;2023-12-22T12:01:18;7.70;99.90
52849;DHT22;38714;53.180;5.812;2023-12-22T12:08:56;7.70;99.90
52849;DHT22;38714;53.180;5.812;2023-12-22T12:11:23;7.70;99.90
52849;DHT22;38714;53.180;5.812;2023-12-22T12:13:50;7.70;99.90
52849;DHT22;38714;53.180;5.812;2023-12-22T12:16:19;7.70;99.90
52849;DHT22;38714;53.180;5.812;2023-12-22T12:18:47;7.70;99.90
52849;DHT22;38714;53.180;5.812;2023-12-22T12:21:13;7.70;99.90
52849;DHT22;38714;53.180;5.812;2023-12-22T12:23:41;7.70;99.90
52849;DHT22;38714;53.180;5.812;2023-12-22T12:26:08;7.70;99.90
52849;DHT22;38714;53.180;5.812;2023-12-22T12:28:35;7.70;99.90
52849;DHT22;38714;53.180;5.812;2023-12-22T12:31:05;7.60;99.90
52849;DHT22;38714;53.180;5.812;2023-12-22T12:33:31;7.60;99.90
52849;DHT22;38714;53.180;5.812;2023-12-22T12:35:59;7.60;99.90
52849;DHT22;38714;53.180;5.812;2023-12-22T12:41:31;7.60;99.90
52849;DHT22;38714;53.180;5.812;2023-12-22T12:43:59;7.60;99.90
52849;DHT22;38714;53.180;5.812;2023-12-22T12:46:39;7.60;99.90
52849;DHT22;38714;53.180;5.812;2023-12-22T12:49:08;7.50;99.90
52849;DHT22;38714;53.180;5.812;2023-12-22T12:51:44;7.60;99.90
52849;DHT22;38714;53.180;5.812;2023-12-22T12:54:11;7.60;99.90
52849;DHT22;38714;53.180;5.812;2023-12-22T12:56:41;7.60;99.90
52849;DHT22;38714;53.180;5.812;2023-12-22T12:59:12;7.60;99.90
52849;DHT22;38714;53.180;5.812;2023-12-22T13:01:42;7.50;99.90
52849;DHT22;38714;53.180;5.812;2023-12-22T13:04:08;7.60;99.90
52849;DHT22;38714;53.180;5.812;2023-12-22T13:06:33;7.50;99.90
52849;DHT22;38714;53.180;5.812;2023-12-22T13:08:59;7.50;99.90
52849;DHT22;38714;53.180;5.812;2023-12-22T13:11:29;7.50;99.90
52849;DHT22;38714;53.180;5.812;2023-12-22T13:13:57;7.50;99.90
52849;DHT22;38714;53.180;5.812;2023-12-22T13:16:24;7.50;99.90
52849;DHT22;38714;53.180;5.812;2023-12-22T13:18:57;7.50;99.90
52849;DHT22;38714;53.180;5.812;2023-12-22T13:21:24;7.50;99.90
52849;DHT22;38714;53.180;5.812;2023-12-22T13:24:11;7.40;99.90
52849;DHT22;38714;53.180;5.812;2023-12-22T13:26:39;7.30;99.90
52849;DHT22;38714;53.180;5.812;2023-12-22T13:29:08;7.20;99.90
52849;DHT22;38714;53.180;5.812;2023-12-22T13:31:41;7.20;99.90
52849;DHT22;38714;53.180;5.812;2023-12-22T13:34:09;7.20;99.90
52849;DHT22;38714;53.180;5.812;2023-12-22T13:36:35;7.00;99.90
52849;DHT22;38714;53.180;5.812;2023-12-22T13:39:07;7.00;99.90
52849;DHT22;38714;53.180;5.812;2023-12-22T13:41:34;6.90;99.90
52849;DHT22;38714;53.180;5.812;2023-12-22T13:44:06;6.90;99.90
52849;DHT22;38714;53.180;5.812;2023-12-22T13:46:32;6.80;99.90
52849;DHT22;38714;53.180;5.812;2023-12-22T13:49:00;6.70;99.90
52849;DHT22;38714;53.180;5.812;2023-12-22T13:51:26;6.70;99.90
52849;DHT22;38714;53.180;5.812;2023-12-22T13:53:52;6.70;99.90
52849;DHT22;38714;53.180;5.812;2023-12-22T13:56:17;6.70;99.90
52849;DHT22;38714;53.180;5.812;2023-12-22T13:58:46;6.60;99.90
52849;DHT22;38714;53.180;5.812;2023-12-22T14:01:13;6.60;99.90
52849;DHT22;38714;53.180;5.812;2023-12-22T14:03:40;6.70;99.90
52849;DHT22;38714;53.180;5.812;2023-12-22T14:06:06;6.60;99.90
52849;DHT22;38714;53.180;5.812;2023-12-22T14:08:34;6.70;99.90
52849;DHT22;38714;53.180;5.812;2023-12-22T14:11:01;6.60;99.90
52849;DHT22;38714;53.180;5.812;2023-12-22T14:13:26;6.60;99.90
52849;DHT22;38714;53.180;5.812;2023-12-22T14:15:52;6.60;99.90
52849;DHT22;38714;53.180;5.812;2023-12-22T14:18:18;6.60;99.90
52849;DHT22;38714;53.180;5.812;2023-12-22T14:20:44;6.60;99.90
52849;DHT22;38714;53.180;5.812;2023-12-22T14:23:11;6.60;99.90
52849;DHT22;38714;53.180;5.812;2023-12-22T14:25:43;6.60;99.90
52849;DHT22;38714;53.180;5.812;2023-12-22T14:28:09;6.60;99.90
52849;DHT22;38714;53.180;5.812;2023-12-22T14:30:34;6.70;99.90
52849;DHT22;38714;53.180;5.812;2023-12-22T14:33:00;6.60;99.90
52849;DHT22;38714;53.180;5.812;2023-12-22T14:35:25;6.70;99.90
52849;DHT22;38714;53.180;5.812;2023-12-22T14:37:51;6.70;99.90
52849;DHT22;38714;53.180;5.812;2023-12-22T14:40:16;6.70;99.90
52849;DHT22;38714;53.180;5.812;2023-12-22T14:42:42;6.70;99.90
52849;DHT22;38714;53.180;5.812;2023-12-22T14:45:08;6.70;99.90
52849;DHT22;38714;53.180;5.812;2023-12-22T14:47:34;6.70;99.90
52849;DHT22;38714;53.180;5.812;2023-12-22T14:50:01;6.70;99.90
52849;DHT22;38714;53.180;5.812;2023-12-22T14:52:32;6.70;99.90
52849;DHT22;38714;53.180;5.812;2023-12-22T14:54:59;6.70;99.90
52849;DHT22;38714;53.180;5.812;2023-12-22T14:57:25;6.80;99.90
52849;DHT22;38714;53.180;5.812;2023-12-22T14:59:51;6.80;99.90
52849;DHT22;38714;53.180;5.812;2023-12-22T15:02:17;6.80;99.90
52849;DHT22;38714;53.180;5.812;2023-12-22T15:04:42;6.80;99.90
52849;DHT22;38714;53.180;5.812;2023-12-22T15:07:08;6.90;99.90
52849;DHT22;38714;53.180;5.812;2023-12-22T15:09:39;6.80;99.90
52849;DHT22;38714;53.180;5.812;2023-12-22T15:12:04;6.90;99.90
52849;DHT22;38714;53.180;5.812;2023-12-22T15:14:30;6.90;99.90
52849;DHT22;38714;53.180;5.812;2023-12-22T15:16:56;6.90;99.90
52849;DHT22;38714;53.180;5.812;2023-12-22T15:19:21;6.90;99.90
52849;DHT22;38714;53.180;5.812;2023-12-22T15:21:47;7.00;99.90
52849;DHT22;38714;53.180;5.812;2023-12-22T15:24:12;7.00;99.90
52849;DHT22;38714;53.180;5.812;2023-12-22T15:26:38;7.00;99.90
52849;DHT22;38714;53.180;5.812;2023-12-22T15:29:04;7.00;99.90
52849;DHT22;38714;53.180;5.812;2023-12-22T15:31:30;7.00;99.90
52849;DHT22;38714;53.180;5.812;2023-12-22T15:33:56;7.00;99.90
52849;DHT22;38714;53.180;5.812;2023-12-22T15:36:22;7.00;99.90
52849;DHT22;38714;53.180;5.812;2023-12-22T15:38:48;7.10;99.90
52849;DHT22;38714;53.180;5.812;2023-12-22T15:41:14;7.00;99.90
52849;DHT22;38714;53.180;5.812;2023-12-22T15:43:41;7.00;99.90
52849;DHT22;38714;53.180;5.812;2023-12-22T15:46:07;7.00;99.90
52849;DHT22;38714;53.180;5.812;2023-12-22T15:48:33;7.10;99.90
52849;DHT22;38714;53.180;5.812;2023-12-22T15:51:05;7.10;99.90
52849;DHT22;38714;53.180;5.812;2023-12-22T15:53:31;7.10;99.90